sensor_id;sensor_type;location;lat;lon;timestamp;P1;durP1;ratioP1;P2;durP2;ratioP2
3567;SDS011;1798;48.486;9.232;2023-07-31T00:01:56;7.13;;;2.73;;
3567;SDS011;1798;48.486;9.232;2023-07-31T00:04:22;20.37;;;3.00;;
3567;SDS011;1798;48.486;9.232;2023-07-31T00:06:49;17.90;;;5.07;;
3567;SDS011;1798;48.486;9.232;2023-07-31T00:16:36;12.10;;;3.50;;
3567;SDS011;1798;48.486;9.232;2023-07-31T00:19:03;12.80;;;3.63;;
3567;SDS011;1798;48.486;9.232;2023-07-31T00:21:30;24.58;;;3.60;;
3567;SDS011;1798;48.486;9.232;2023-07-31T00:23:56;11.65;;;3.30;;
3567;SDS011;1798;48.486;9.232;2023-07-31T00:26:23;6.40;;;2.70;;
3567;SDS011;1798;48.486;9.232;2023-07-31T00:28:50;10.65;;;3.25;;
3567;SDS011;1798;48.486;9.232;2023-07-31T00:31:17;10.52;;;3.10;;
3567;SDS011;1798;48.486;9.232;2023-07-31T00:33:45;7.77;;;3.00;;
3567;SDS011;1798;48.486;9.232;2023-07-31T00:36:12;8.00;;;3.07;;
3567;SDS011;1798;48.486;9.232;2023-07-31T00:38:38;8.60;;;3.40;;
3567;SDS011;1798;48.486;9.232;2023-07-31T00:41:05;7.10;;;3.57;;
3567;SDS011;1798;48.486;9.232;2023-07-31T00:43:31;12.40;;;3.73;;
3567;SDS011;1798;48.486;9.232;2023-07-31T00:45:58;22.30;;;3.03;;
3567;SDS011;1798;48.486;9.232;2023-07-31T00:48:25;8.60;;;2.80;;
3567;SDS011;1798;48.486;9.232;2023-07-31T00:50:54;14.03;;;3.10;;
3567;SDS011;1798;48.486;9.232;2023-07-31T00:53:20;11.80;;;3.47;;
3567;SDS011;1798;48.486;9.232;2023-07-31T00:55:47;11.07;;;3.40;;
3567;SDS011;1798;48.486;9.232;2023-07-31T00:58:14;12.93;;;3.43;;
3567;SDS011;1798;48.486;9.232;2023-07-31T01:00:41;16.57;;;3.90;;
3567;SDS011;1798;48.486;9.232;2023-07-31T01:03:07;9.50;;;2.83;;
3567;SDS011;1798;48.486;9.232;2023-07-31T01:05:36;10.23;;;3.33;;
3567;SDS011;1798;48.486;9.232;2023-07-31T01:08:14;21.37;;;6.00;;
3567;SDS011;1798;48.486;9.232;2023-07-31T01:10:45;11.37;;;3.60;;
3567;SDS011;1798;48.486;9.232;2023-07-31T01:13:14;9.80;;;3.33;;
3567;SDS011;1798;48.486;9.232;2023-07-31T01:15:41;17.10;;;4.90;;
3567;SDS011;1798;48.486;9.232;2023-07-31T01:18:08;12.33;;;3.20;;
3567;SDS011;1798;48.486;9.232;2023-07-31T01:20:35;8.93;;;3.25;;
3567;SDS011;1798;48.486;9.232;2023-07-31T01:23:13;10.73;;;3.57;;
3567;SDS011;1798;48.486;9.232;2023-07-31T01:26:12;16.48;;;3.85;;
3567;SDS011;1798;48.486;9.232;2023-07-31T01:28:42;12.02;;;3.40;;
3567;SDS011;1798;48.486;9.232;2023-07-31T01:31:24;7.40;;;3.00;;
3567;SDS011;1798;48.486;9.232;2023-07-31T01:33:53;7.60;;;2.67;;
3567;SDS011;1798;48.486;9.232;2023-07-31T01:36:20;9.97;;;3.10;;
3567;SDS011;1798;48.486;9.232;2023-07-31T01:38:47;8.53;;;3.03;;
3567;SDS011;1798;48.486;9.232;2023-07-31T01:41:17;12.00;;;3.27;;
3567;SDS011;1798;48.486;9.232;2023-07-31T01:43:44;8.93;;;3.33;;
3567;SDS011;1798;48.486;9.232;2023-07-31T01:46:11;11.13;;;3.67;;
3567;SDS011;1798;48.486;9.232;2023-07-31T01:48:37;13.20;;;3.17;;
3567;SDS011;1798;48.486;9.232;2023-07-31T01:51:04;8.00;;;3.70;;
3567;SDS011;1798;48.486;9.232;2023-07-31T01:53:31;11.20;;;3.70;;
3567;SDS011;1798;48.486;9.232;2023-07-31T01:55:58;15.00;;;3.40;;
3567;SDS011;1798;48.486;9.232;2023-07-31T01:58:26;15.73;;;2.80;;
3567;SDS011;1798;48.486;9.232;2023-07-31T02:00:53;8.60;;;3.00;;
3567;SDS011;1798;48.486;9.232;2023-07-31T02:03:20;7.13;;;2.90;;
3567;SDS011;1798;48.486;9.232;2023-07-31T02:05:47;9.13;;;2.90;;
3567;SDS011;1798;48.486;9.232;2023-07-31T02:08:15;9.60;;;4.57;;
3567;SDS011;1798;48.486;9.232;2023-07-31T02:10:42;15.70;;;3.00;;
3567;SDS011;1798;48.486;9.232;2023-07-31T02:13:08;9.23;;;2.93;;
3567;SDS011;1798;48.486;9.232;2023-07-31T02:15:36;6.63;;;3.07;;
3567;SDS011;1798;48.486;9.232;2023-07-31T02:18:03;8.10;;;3.17;;
3567;SDS011;1798;48.486;9.232;2023-07-31T02:20:33;13.00;;;3.20;;
3567;SDS011;1798;48.486;9.232;2023-07-31T02:23:00;10.63;;;3.17;;
3567;SDS011;1798;48.486;9.232;2023-07-31T02:25:27;9.20;;;3.73;;
3567;SDS011;1798;48.486;9.232;2023-07-31T02:27:54;16.73;;;3.83;;
3567;SDS011;1798;48.486;9.232;2023-07-31T02:30:20;7.20;;;3.17;;
3567;SDS011;1798;48.486;9.232;2023-07-31T02:32:48;18.20;;;3.80;;
3567;SDS011;1798;48.486;9.232;2023-07-31T02:35:15;14.90;;;3.43;;
3567;SDS011;1798;48.486;9.232;2023-07-31T02:37:43;18.27;;;3.50;;
3567;SDS011;1798;48.486;9.232;2023-07-31T02:40:10;11.20;;;3.60;;
3567;SDS011;1798;48.486;9.232;2023-07-31T02:42:37;10.47;;;3.53;;
3567;SDS011;1798;48.486;9.232;2023-07-31T02:45:05;12.53;;;3.20;;
3567;SDS011;1798;48.486;9.232;2023-07-31T02:47:32;11.13;;;3.10;;
3567;SDS011;1798;48.486;9.232;2023-07-31T02:50:00;13.53;;;3.10;;
3567;SDS011;1798;48.486;9.232;2023-07-31T02:52:27;8.97;;;3.73;;
3567;SDS011;1798;48.486;9.232;2023-07-31T02:54:54;8.73;;;2.83;;
3567;SDS011;1798;48.486;9.232;2023-07-31T02:57:20;11.97;;;2.93;;
3567;SDS011;1798;48.486;9.232;2023-07-31T02:59:47;22.43;;;3.73;;
3567;SDS011;1798;48.486;9.232;2023-07-31T03:02:14;16.60;;;3.30;;
3567;SDS011;1798;48.486;9.232;2023-07-31T03:04:41;11.60;;;4.10;;
3567;SDS011;1798;48.486;9.232;2023-07-31T03:07:09;5.90;;;2.80;;
3567;SDS011;1798;48.486;9.232;2023-07-31T03:09:36;6.63;;;3.47;;
3567;SDS011;1798;48.486;9.232;2023-07-31T03:12:03;5.97;;;2.80;;
3567;SDS011;1798;48.486;9.232;2023-07-31T03:14:29;10.40;;;3.53;;
3567;SDS011;1798;48.486;9.232;2023-07-31T03:16:56;9.60;;;4.17;;
3567;SDS011;1798;48.486;9.232;2023-07-31T03:19:23;7.40;;;3.60;;
3567;SDS011;1798;48.486;9.232;2023-07-31T03:21:50;12.80;;;3.63;;
3567;SDS011;1798;48.486;9.232;2023-07-31T03:24:18;10.03;;;3.47;;
3567;SDS011;1798;48.486;9.232;2023-07-31T03:26:44;23.30;;;4.20;;
3567;SDS011;1798;48.486;9.232;2023-07-31T03:29:11;8.20;;;2.80;;
3567;SDS011;1798;48.486;9.232;2023-07-31T03:31:37;9.10;;;3.63;;
3567;SDS011;1798;48.486;9.232;2023-07-31T03:34:04;8.73;;;3.83;;
3567;SDS011;1798;48.486;9.232;2023-07-31T03:36:31;18.67;;;3.33;;
3567;SDS011;1798;48.486;9.232;2023-07-31T03:38:58;14.17;;;3.97;;
3567;SDS011;1798;48.486;9.232;2023-07-31T03:41:26;17.53;;;5.07;;
3567;SDS011;1798;48.486;9.232;2023-07-31T03:43:52;11.53;;;3.37;;
3567;SDS011;1798;48.486;9.232;2023-07-31T03:46:21;14.53;;;3.10;;
3567;SDS011;1798;48.486;9.232;2023-07-31T03:48:47;13.10;;;3.60;;
3567;SDS011;1798;48.486;9.232;2023-07-31T03:51:14;18.17;;;3.03;;
3567;SDS011;1798;48.486;9.232;2023-07-31T03:53:41;26.17;;;3.20;;
3567;SDS011;1798;48.486;9.232;2023-07-31T03:56:08;7.60;;;3.13;;
3567;SDS011;1798;48.486;9.232;2023-07-31T03:58:36;19.10;;;4.90;;
3567;SDS011;1798;48.486;9.232;2023-07-31T04:01:03;8.63;;;3.30;;
3567;SDS011;1798;48.486;9.232;2023-07-31T04:03:30;11.90;;;4.93;;
3567;SDS011;1798;48.486;9.232;2023-07-31T04:05:56;7.33;;;2.93;;
3567;SDS011;1798;48.486;9.232;2023-07-31T04:08:23;10.90;;;4.00;;
3567;SDS011;1798;48.486;9.232;2023-07-31T04:10:50;7.73;;;3.27;;
3567;SDS011;1798;48.486;9.232;2023-07-31T04:13:17;16.83;;;3.50;;
3567;SDS011;1798;48.486;9.232;2023-07-31T04:15:49;11.03;;;3.73;;
3567;SDS011;1798;48.486;9.232;2023-07-31T04:18:16;14.87;;;4.13;;
3567;SDS011;1798;48.486;9.232;2023-07-31T04:20:42;16.07;;;4.73;;
3567;SDS011;1798;48.486;9.232;2023-07-31T04:23:09;12.40;;;4.13;;
3567;SDS011;1798;48.486;9.232;2023-07-31T04:25:35;13.27;;;3.90;;
3567;SDS011;1798;48.486;9.232;2023-07-31T04:28:02;13.50;;;4.07;;
3567;SDS011;1798;48.486;9.232;2023-07-31T04:30:29;9.70;;;3.30;;
3567;SDS011;1798;48.486;9.232;2023-07-31T04:32:57;9.27;;;3.20;;
3567;SDS011;1798;48.486;9.232;2023-07-31T04:35:23;11.00;;;4.10;;
3567;SDS011;1798;48.486;9.232;2023-07-31T04:37:50;22.27;;;3.90;;
3567;SDS011;1798;48.486;9.232;2023-07-31T04:40:16;10.20;;;3.93;;
3567;SDS011;1798;48.486;9.232;2023-07-31T04:42:43;11.37;;;4.23;;
3567;SDS011;1798;48.486;9.232;2023-07-31T04:45:09;11.70;;;4.07;;
3567;SDS011;1798;48.486;9.232;2023-07-31T04:47:36;9.13;;;3.70;;
3567;SDS011;1798;48.486;9.232;2023-07-31T04:50:05;17.33;;;4.87;;
3567;SDS011;1798;48.486;9.232;2023-07-31T04:52:32;8.40;;;4.10;;
3567;SDS011;1798;48.486;9.232;2023-07-31T04:54:59;15.30;;;4.20;;
3567;SDS011;1798;48.486;9.232;2023-07-31T04:57:26;11.57;;;4.17;;
3567;SDS011;1798;48.486;9.232;2023-07-31T04:59:52;13.80;;;4.67;;
3567;SDS011;1798;48.486;9.232;2023-07-31T05:02:19;15.50;;;4.40;;
3567;SDS011;1798;48.486;9.232;2023-07-31T05:04:45;17.50;;;3.73;;
3567;SDS011;1798;48.486;9.232;2023-07-31T05:07:13;11.10;;;4.70;;
3567;SDS011;1798;48.486;9.232;2023-07-31T05:09:41;11.40;;;4.23;;
3567;SDS011;1798;48.486;9.232;2023-07-31T05:12:08;8.33;;;4.10;;
3567;SDS011;1798;48.486;9.232;2023-07-31T05:14:35;14.03;;;6.10;;
3567;SDS011;1798;48.486;9.232;2023-07-31T05:17:01;14.53;;;4.70;;
3567;SDS011;1798;48.486;9.232;2023-07-31T05:19:28;13.60;;;4.43;;
3567;SDS011;1798;48.486;9.232;2023-07-31T05:21:55;9.70;;;4.50;;
3567;SDS011;1798;48.486;9.232;2023-07-31T05:24:23;18.73;;;5.20;;
3567;SDS011;1798;48.486;9.232;2023-07-31T05:26:50;14.90;;;4.33;;
3567;SDS011;1798;48.486;9.232;2023-07-31T05:29:16;12.00;;;4.60;;
3567;SDS011;1798;48.486;9.232;2023-07-31T05:31:43;12.93;;;3.67;;
3567;SDS011;1798;48.486;9.232;2023-07-31T05:34:09;14.20;;;4.47;;
3567;SDS011;1798;48.486;9.232;2023-07-31T05:36:36;7.73;;;4.20;;
3567;SDS011;1798;48.486;9.232;2023-07-31T05:39:03;9.90;;;4.27;;
3567;SDS011;1798;48.486;9.232;2023-07-31T05:41:35;14.03;;;4.27;;
3567;SDS011;1798;48.486;9.232;2023-07-31T05:44:02;13.93;;;4.47;;
3567;SDS011;1798;48.486;9.232;2023-07-31T05:46:29;12.30;;;4.60;;
3567;SDS011;1798;48.486;9.232;2023-07-31T05:48:56;21.80;;;4.40;;
3567;SDS011;1798;48.486;9.232;2023-07-31T05:51:25;8.43;;;3.70;;
3567;SDS011;1798;48.486;9.232;2023-07-31T05:53:51;11.27;;;4.20;;
3567;SDS011;1798;48.486;9.232;2023-07-31T05:56:18;13.60;;;4.50;;
3567;SDS011;1798;48.486;9.232;2023-07-31T05:58:46;13.20;;;4.37;;
3567;SDS011;1798;48.486;9.232;2023-07-31T06:01:14;12.00;;;4.63;;
3567;SDS011;1798;48.486;9.232;2023-07-31T06:03:41;8.40;;;3.90;;
3567;SDS011;1798;48.486;9.232;2023-07-31T06:06:08;9.70;;;4.27;;
3567;SDS011;1798;48.486;9.232;2023-07-31T06:08:34;14.73;;;4.30;;
3567;SDS011;1798;48.486;9.232;2023-07-31T06:11:01;12.30;;;4.33;;
3567;SDS011;1798;48.486;9.232;2023-07-31T06:13:28;9.60;;;4.10;;
3567;SDS011;1798;48.486;9.232;2023-07-31T06:15:56;11.40;;;4.40;;
3567;SDS011;1798;48.486;9.232;2023-07-31T06:18:24;20.80;;;5.37;;
3567;SDS011;1798;48.486;9.232;2023-07-31T06:20:50;8.70;;;4.30;;
3567;SDS011;1798;48.486;9.232;2023-07-31T06:23:18;16.40;;;4.67;;
3567;SDS011;1798;48.486;9.232;2023-07-31T06:25:45;14.90;;;4.77;;
3567;SDS011;1798;48.486;9.232;2023-07-31T06:28:12;11.13;;;4.37;;
3567;SDS011;1798;48.486;9.232;2023-07-31T06:30:38;17.23;;;4.03;;
3567;SDS011;1798;48.486;9.232;2023-07-31T06:33:06;18.00;;;3.63;;
3567;SDS011;1798;48.486;9.232;2023-07-31T06:35:34;9.13;;;3.67;;
3567;SDS011;1798;48.486;9.232;2023-07-31T06:38:00;12.30;;;4.70;;
3567;SDS011;1798;48.486;9.232;2023-07-31T06:40:27;16.10;;;4.77;;
3567;SDS011;1798;48.486;9.232;2023-07-31T06:42:54;11.40;;;4.00;;
3567;SDS011;1798;48.486;9.232;2023-07-31T06:45:21;14.30;;;4.60;;
3567;SDS011;1798;48.486;9.232;2023-07-31T06:47:48;17.50;;;4.70;;
3567;SDS011;1798;48.486;9.232;2023-07-31T06:50:16;10.67;;;4.50;;
3567;SDS011;1798;48.486;9.232;2023-07-31T06:52:42;16.77;;;4.43;;
3567;SDS011;1798;48.486;9.232;2023-07-31T06:55:16;18.37;;;4.40;;
3567;SDS011;1798;48.486;9.232;2023-07-31T06:57:44;8.67;;;3.73;;
3567;SDS011;1798;48.486;9.232;2023-07-31T07:00:11;8.90;;;4.10;;
3567;SDS011;1798;48.486;9.232;2023-07-31T07:02:38;14.67;;;4.23;;
3567;SDS011;1798;48.486;9.232;2023-07-31T07:05:05;9.50;;;4.23;;
3567;SDS011;1798;48.486;9.232;2023-07-31T07:07:34;21.40;;;4.73;;
3567;SDS011;1798;48.486;9.232;2023-07-31T07:10:01;7.93;;;3.63;;
3567;SDS011;1798;48.486;9.232;2023-07-31T07:12:29;15.03;;;4.43;;
3567;SDS011;1798;48.486;9.232;2023-07-31T07:14:56;8.13;;;3.60;;
3567;SDS011;1798;48.486;9.232;2023-07-31T07:17:23;15.10;;;4.40;;
3567;SDS011;1798;48.486;9.232;2023-07-31T07:19:49;9.47;;;3.70;;
3567;SDS011;1798;48.486;9.232;2023-07-31T07:22:16;21.80;;;3.70;;
3567;SDS011;1798;48.486;9.232;2023-07-31T07:24:45;11.70;;;4.13;;
3567;SDS011;1798;48.486;9.232;2023-07-31T07:27:11;12.30;;;4.13;;
3567;SDS011;1798;48.486;9.232;2023-07-31T07:29:38;9.80;;;3.70;;
3567;SDS011;1798;48.486;9.232;2023-07-31T07:32:05;9.93;;;4.47;;
3567;SDS011;1798;48.486;9.232;2023-07-31T07:34:32;11.90;;;4.23;;
3567;SDS011;1798;48.486;9.232;2023-07-31T07:36:58;12.07;;;4.17;;
3567;SDS011;1798;48.486;9.232;2023-07-31T07:39:25;10.13;;;3.80;;
3567;SDS011;1798;48.486;9.232;2023-07-31T07:41:53;17.47;;;4.07;;
3567;SDS011;1798;48.486;9.232;2023-07-31T07:44:20;9.40;;;4.20;;
3567;SDS011;1798;48.486;9.232;2023-07-31T07:46:46;7.77;;;3.60;;
3567;SDS011;1798;48.486;9.232;2023-07-31T07:49:13;10.70;;;3.53;;
3567;SDS011;1798;48.486;9.232;2023-07-31T07:51:40;12.33;;;3.93;;
3567;SDS011;1798;48.486;9.232;2023-07-31T07:54:06;8.33;;;3.70;;
3567;SDS011;1798;48.486;9.232;2023-07-31T07:56:33;11.40;;;3.87;;
3567;SDS011;1798;48.486;9.232;2023-07-31T07:59:02;12.70;;;5.30;;
3567;SDS011;1798;48.486;9.232;2023-07-31T08:01:29;7.93;;;3.93;;
3567;SDS011;1798;48.486;9.232;2023-07-31T08:03:58;9.73;;;4.00;;
3567;SDS011;1798;48.486;9.232;2023-07-31T08:06:25;9.73;;;4.20;;
3567;SDS011;1798;48.486;9.232;2023-07-31T08:08:52;8.23;;;3.50;;
3567;SDS011;1798;48.486;9.232;2023-07-31T08:11:18;8.87;;;3.40;;
3567;SDS011;1798;48.486;9.232;2023-07-31T08:13:45;8.50;;;3.90;;
3567;SDS011;1798;48.486;9.232;2023-07-31T08:16:13;8.37;;;3.33;;
3567;SDS011;1798;48.486;9.232;2023-07-31T08:18:39;7.77;;;3.73;;
3567;SDS011;1798;48.486;9.232;2023-07-31T08:21:07;12.30;;;4.17;;
3567;SDS011;1798;48.486;9.232;2023-07-31T08:23:34;9.80;;;3.60;;
3567;SDS011;1798;48.486;9.232;2023-07-31T08:26:01;8.10;;;3.33;;
3567;SDS011;1798;48.486;9.232;2023-07-31T08:28:27;8.90;;;3.90;;
3567;SDS011;1798;48.486;9.232;2023-07-31T08:30:54;9.40;;;4.17;;
3567;SDS011;1798;48.486;9.232;2023-07-31T08:33:22;7.50;;;3.73;;
3567;SDS011;1798;48.486;9.232;2023-07-31T08:35:48;11.70;;;3.50;;
3567;SDS011;1798;48.486;9.232;2023-07-31T08:38:15;10.77;;;4.07;;
3567;SDS011;1798;48.486;9.232;2023-07-31T08:40:42;10.33;;;4.70;;
3567;SDS011;1798;48.486;9.232;2023-07-31T08:43:08;6.47;;;3.90;;
3567;SDS011;1798;48.486;9.232;2023-07-31T08:45:35;7.77;;;4.30;;
3567;SDS011;1798;48.486;9.232;2023-07-31T08:48:02;11.67;;;4.50;;
3567;SDS011;1798;48.486;9.232;2023-07-31T08:50:30;10.60;;;4.30;;
3567;SDS011;1798;48.486;9.232;2023-07-31T08:52:57;10.83;;;3.87;;
3567;SDS011;1798;48.486;9.232;2023-07-31T08:55:23;8.80;;;4.10;;
3567;SDS011;1798;48.486;9.232;2023-07-31T08:57:50;9.30;;;3.80;;
3567;SDS011;1798;48.486;9.232;2023-07-31T09:00:18;10.73;;;4.77;;
3567;SDS011;1798;48.486;9.232;2023-07-31T09:02:50;10.70;;;4.70;;
3567;SDS011;1798;48.486;9.232;2023-07-31T09:05:19;15.87;;;3.90;;
3567;SDS011;1798;48.486;9.232;2023-07-31T09:07:48;8.50;;;3.60;;
3567;SDS011;1798;48.486;9.232;2023-07-31T09:10:16;17.03;;;4.93;;
3567;SDS011;1798;48.486;9.232;2023-07-31T09:12:43;9.37;;;4.30;;
3567;SDS011;1798;48.486;9.232;2023-07-31T09:15:10;12.53;;;4.33;;
3567;SDS011;1798;48.486;9.232;2023-07-31T09:17:37;15.23;;;5.07;;
3567;SDS011;1798;48.486;9.232;2023-07-31T09:20:13;11.60;;;3.60;;
3567;SDS011;1798;48.486;9.232;2023-07-31T09:22:41;7.30;;;3.50;;
3567;SDS011;1798;48.486;9.232;2023-07-31T09:25:16;8.37;;;4.07;;
3567;SDS011;1798;48.486;9.232;2023-07-31T09:27:47;8.83;;;3.43;;
3567;SDS011;1798;48.486;9.232;2023-07-31T09:30:14;19.80;;;4.40;;
3567;SDS011;1798;48.486;9.232;2023-07-31T09:32:42;7.70;;;4.17;;
3567;SDS011;1798;48.486;9.232;2023-07-31T09:37:55;10.70;;;4.17;;
3567;SDS011;1798;48.486;9.232;2023-07-31T09:40:26;8.13;;;3.50;;
3567;SDS011;1798;48.486;9.232;2023-07-31T09:42:57;9.00;;;3.87;;
3567;SDS011;1798;48.486;9.232;2023-07-31T09:45:24;9.37;;;4.53;;
3567;SDS011;1798;48.486;9.232;2023-07-31T09:47:51;8.90;;;4.00;;
3567;SDS011;1798;48.486;9.232;2023-07-31T09:50:19;11.47;;;4.60;;
3567;SDS011;1798;48.486;9.232;2023-07-31T09:52:46;12.33;;;3.60;;
3567;SDS011;1798;48.486;9.232;2023-07-31T09:55:14;9.27;;;4.10;;
3567;SDS011;1798;48.486;9.232;2023-07-31T09:57:43;9.20;;;3.97;;
3567;SDS011;1798;48.486;9.232;2023-07-31T10:00:11;11.97;;;4.00;;
3567;SDS011;1798;48.486;9.232;2023-07-31T10:02:39;7.40;;;3.90;;
3567;SDS011;1798;48.486;9.232;2023-07-31T10:05:06;8.17;;;3.70;;
3567;SDS011;1798;48.486;9.232;2023-07-31T10:07:37;5.93;;;3.10;;
3567;SDS011;1798;48.486;9.232;2023-07-31T10:10:05;11.93;;;4.43;;
3567;SDS011;1798;48.486;9.232;2023-07-31T10:12:33;38.33;;;4.13;;
3567;SDS011;1798;48.486;9.232;2023-07-31T10:15:02;7.80;;;3.80;;
3567;SDS011;1798;48.486;9.232;2023-07-31T10:24:50;9.93;;;4.00;;
3567;SDS011;1798;48.486;9.232;2023-07-31T10:27:16;9.27;;;3.90;;
3567;SDS011;1798;48.486;9.232;2023-07-31T10:29:43;8.33;;;3.90;;
3567;SDS011;1798;48.486;9.232;2023-07-31T10:32:14;12.80;;;4.37;;
3567;SDS011;1798;48.486;9.232;2023-07-31T10:34:41;13.20;;;4.17;;
3567;SDS011;1798;48.486;9.232;2023-07-31T10:37:21;15.33;;;5.47;;
3567;SDS011;1798;48.486;9.232;2023-07-31T10:39:55;22.47;;;5.67;;
3567;SDS011;1798;48.486;9.232;2023-07-31T10:54:47;15.77;;;4.70;;
3567;SDS011;1798;48.486;9.232;2023-07-31T10:57:20;12.88;;;4.20;;
3567;SDS011;1798;48.486;9.232;2023-07-31T11:32:19;9.20;;;4.40;;
3567;SDS011;1798;48.486;9.232;2023-07-31T11:39:58;17.33;;;5.80;;
3567;SDS011;1798;48.486;9.232;2023-07-31T11:42:25;13.83;;;4.60;;
3567;SDS011;1798;48.486;9.232;2023-07-31T11:44:51;11.95;;;4.93;;
3567;SDS011;1798;48.486;9.232;2023-07-31T11:47:18;12.88;;;4.80;;
3567;SDS011;1798;48.486;9.232;2023-07-31T11:49:44;10.30;;;4.07;;
3567;SDS011;1798;48.486;9.232;2023-07-31T11:52:12;11.73;;;4.67;;
3567;SDS011;1798;48.486;9.232;2023-07-31T11:54:39;11.88;;;5.10;;
3567;SDS011;1798;48.486;9.232;2023-07-31T13:13:07;17.77;;;6.15;;
3567;SDS011;1798;48.486;9.232;2023-07-31T13:15:34;17.23;;;6.00;;
3567;SDS011;1798;48.486;9.232;2023-07-31T13:18:02;18.30;;;5.57;;
3567;SDS011;1798;48.486;9.232;2023-07-31T13:20:28;16.73;;;5.60;;
3567;SDS011;1798;48.486;9.232;2023-07-31T13:22:55;15.60;;;5.47;;
3567;SDS011;1798;48.486;9.232;2023-07-31T13:25:22;18.00;;;6.03;;
3567;SDS011;1798;48.486;9.232;2023-07-31T13:27:48;16.60;;;6.35;;
3567;SDS011;1798;48.486;9.232;2023-07-31T19:32:17;13.30;;;5.90;;
3567;SDS011;1798;48.486;9.232;2023-07-31T19:34:45;9.80;;;5.20;;
3567;SDS011;1798;48.486;9.232;2023-07-31T19:37:12;14.17;;;5.30;;
3567;SDS011;1798;48.486;9.232;2023-07-31T19:39:38;18.83;;;7.10;;
3567;SDS011;1798;48.486;9.232;2023-07-31T19:42:05;17.07;;;7.60;;
3567;SDS011;1798;48.486;9.232;2023-07-31T19:44:32;19.77;;;6.23;;
3567;SDS011;1798;48.486;9.232;2023-07-31T19:46:58;12.90;;;6.20;;
3567;SDS011;1798;48.486;9.232;2023-07-31T19:49:25;27.10;;;6.37;;
3567;SDS011;1798;48.486;9.232;2023-07-31T19:51:54;13.80;;;6.20;;
3567;SDS011;1798;48.486;9.232;2023-07-31T19:54:21;23.50;;;6.83;;
3567;SDS011;1798;48.486;9.232;2023-07-31T19:56:48;19.53;;;6.60;;
3567;SDS011;1798;48.486;9.232;2023-07-31T19:59:15;15.87;;;6.40;;
3567;SDS011;1798;48.486;9.232;2023-07-31T20:01:43;17.43;;;6.60;;
3567;SDS011;1798;48.486;9.232;2023-07-31T20:04:10;20.43;;;6.90;;
3567;SDS011;1798;48.486;9.232;2023-07-31T20:06:37;21.77;;;6.33;;
3567;SDS011;1798;48.486;9.232;2023-07-31T20:09:05;16.83;;;6.83;;
3567;SDS011;1798;48.486;9.232;2023-07-31T23:24:44;19.92;;;6.40;;
3567;SDS011;1798;48.486;9.232;2023-07-31T23:27:11;12.00;;;6.13;;
3567;SDS011;1798;48.486;9.232;2023-07-31T23:29:37;12.90;;;5.80;;
3567;SDS011;1798;48.486;9.232;2023-07-31T23:32:04;14.50;;;6.65;;
3567;SDS011;1798;48.486;9.232;2023-07-31T23:34:33;12.48;;;6.35;;
3567;SDS011;1798;48.486;9.232;2023-07-31T23:36:59;18.70;;;5.80;;
3567;SDS011;1798;48.486;9.232;2023-07-31T23:39:26;14.48;;;6.80;;
3567;SDS011;1798;48.486;9.232;2023-07-31T23:41:53;12.50;;;6.00;;
3567;SDS011;1798;48.486;9.232;2023-07-31T23:44:19;16.27;;;5.68;;
3567;SDS011;1798;48.486;9.232;2023-07-31T23:46:46;12.88;;;5.70;;
3567;SDS011;1798;48.486;9.232;2023-07-31T23:49:13;12.32;;;6.10;;
3567;SDS011;1798;48.486;9.232;2023-07-31T23:51:41;14.48;;;6.65;;
3567;SDS011;1798;48.486;9.232;2023-07-31T23:54:08;14.07;;;6.60;;
3567;SDS011;1798;48.486;9.232;2023-07-31T23:56:35;14.40;;;6.20;;
3567;SDS011;1798;48.486;9.232;2023-07-31T23:59:02;14.18;;;5.75;;
